Time;durP1;ratioP1;P1;durP2;ratioP2;P2;SDS_P1;SDS_P2;PMS_P1;PMS_P2;Temp;Humidity;BMP_temperature;BMP_pressure;BME280_temperature;BME280_humidity;BME280_pressure;Samples;Min_cycle;Max_cycle;Signal;HPM_P1;HPM_P2
2022/01/26 00:00:43;;;;;;;71.80;25.17;;;2.10;83.10;;;;;;5072236;28;20225;-56
2022/01/26 00:06:03;;;;;;;52.50;24.45;;;2.10;83.00;;;;;;5073194;28;20286;-56
2022/01/26 00:08:30;;;;;;;55.83;24.92;;;2.10;82.90;;;;;;5073439;28;20205;-57
2022/01/26 00:10:57;;;;;;;50.40;25.17;;;2.10;82.90;;;;;;5073128;28;20673;-59
2022/01/26 00:13:24;;;;;;;60.63;24.70;;;2.00;82.90;;;;;;5073027;28;20212;-56
2022/01/26 00:15:51;;;;;;;104.95;31.08;;;2.00;83.30;;;;;;5071843;28;20212;-56
2022/01/26 00:18:21;;;;;;;58.25;25.27;;;2.00;83.30;;;;;;5073326;28;20204;-56
2022/01/26 00:20:53;;;;;;;85.68;28.08;;;1.90;83.70;;;;;;5073048;28;20565;-59
2022/01/26 00:23:49;;;;;;;63.58;27.30;;;1.90;83.80;;;;;;5073052;28;20426;-57
2022/01/26 00:26:26;;;;;;;69.90;26.40;;;1.90;83.80;;;;;;5053003;28;20279;-57
2022/01/26 00:29:09;;;;;;;46.00;21.15;;;2.00;83.60;;;;;;5052809;28;20660;-56
2022/01/26 00:39:56;;;;;;;53.28;23.55;;;2.10;82.90;;;;;;5052837;28;20289;-59
2022/01/26 00:42:24;;;;;;;57.88;24.40;;;2.10;82.90;;;;;;5052742;28;20212;-56
2022/01/26 00:44:50;;;;;;;56.92;25.27;;;2.10;82.90;;;;;;5051535;28;20229;-56
2022/01/26 00:47:18;;;;;;;44.50;22.63;;;2.10;82.80;;;;;;5052705;28;20229;-55
2022/01/26 00:49:44;;;;;;;58.30;24.73;;;2.20;82.80;;;;;;5052611;28;20603;-56
2022/01/26 00:52:19;;;;;;;59.85;26.63;;;2.20;82.80;;;;;;5052666;28;20670;-58
2022/01/26 00:54:46;;;;;;;48.15;23.05;;;2.20;82.70;;;;;;5066191;28;20562;-54
2022/01/26 00:57:15;;;;;;;64.45;25.90;;;2.20;82.70;;;;;;5076674;28;20207;-56
2022/01/26 00:59:41;;;;;;;51.03;24.00;;;2.30;82.70;;;;;;5075523;28;20654;-58
2022/01/26 01:02:08;;;;;;;50.50;23.33;;;2.30;82.70;;;;;;5076777;28;20295;-57
2022/01/26 01:04:35;;;;;;;54.95;23.67;;;2.30;82.70;;;;;;5076724;28;20207;-56
2022/01/26 01:07:04;;;;;;;59.53;25.15;;;2.30;82.80;;;;;;5076615;28;20258;-57
2022/01/26 01:09:34;;;;;;;48.20;22.90;;;2.30;83.20;;;;;;5076590;28;20549;-57
2022/01/26 01:12:03;;;;;;;49.00;22.15;;;2.30;83.20;;;;;;5076206;28;20334;-56
2022/01/26 01:14:36;;;;;;;55.25;23.70;;;2.30;83.10;;;;;;5075165;28;20373;-58
2022/01/26 01:17:05;;;;;;;60.97;25.70;;;2.30;83.10;;;;;;5076408;28;20273;-57
2022/01/26 01:19:37;;;;;;;67.72;26.20;;;2.40;83.10;;;;;;5076508;28;20291;-58
2022/01/26 01:22:30;;;;;;;54.03;24.27;;;2.40;83.00;;;;;;5076400;28;20686;-55
2022/01/26 01:30:31;;;;;;;58.08;23.35;;;2.40;82.60;;;;;;5075047;28;20577;-57
2022/01/26 01:33:06;;;;;;;47.50;22.52;;;2.40;82.60;;;;;;5076182;28;20215;-58
2022/01/26 01:35:36;;;;;;;80.10;26.77;;;2.40;82.50;;;;;;5076165;28;20207;-60
2022/01/26 01:38:09;;;;;;;71.40;25.02;;;2.30;83.10;;;;;;5076032;28;20201;-57
2022/01/26 01:40:38;;;;;;;53.55;24.13;;;2.20;83.50;;;;;;5075977;28;20201;-61
2022/01/26 01:43:05;;;;;;;47.50;21.23;;;2.30;83.40;;;;;;5075943;28;20208;-58
2022/01/26 01:45:35;;;;;;;48.53;23.20;;;2.30;83.40;;;;;;5074694;28;20210;-59
2022/01/26 01:48:03;;;;;;;48.60;22.00;;;2.30;83.20;;;;;;5075857;28;20215;-61
2022/01/26 01:50:30;;;;;;;49.00;21.80;;;2.40;83.10;;;;;;5075718;28;20243;-61
2022/01/26 01:53:01;;;;;;;81.40;24.08;;;2.40;83.00;;;;;;5075863;28;20240;-60
2022/01/26 01:55:29;;;;;;;121.32;27.92;;;2.20;83.40;;;;;;5075743;28;20251;-61
2022/01/26 01:57:57;;;;;;;92.03;26.63;;;2.20;83.80;;;;;;5075587;28;20205;-61
2022/01/26 02:00:24;;;;;;;57.58;23.13;;;2.20;83.40;;;;;;5074374;28;20295;-60
2022/01/26 02:02:52;;;;;;;78.63;24.70;;;1.90;84.40;;;;;;5075459;28;20204;-58
2022/01/26 02:05:20;;;;;;;45.20;21.42;;;1.90;84.80;;;;;;5075639;28;20620;-60
2022/01/26 02:07:47;;;;;;;48.47;21.05;;;2.00;84.40;;;;;;5075559;28;20341;-59
2022/01/26 02:10:14;;;;;;;40.33;21.40;;;1.80;85.20;;;;;;5075453;28;20571;-60
2022/01/26 02:12:49;;;;;;;54.63;23.35;;;1.80;85.10;;;;;;5075031;28;20350;-61
2022/01/26 02:15:20;;;;;;;46.83;21.35;;;1.80;84.90;;;;;;5074072;28;20210;-61
2022/01/26 02:18:09;;;;;;;44.42;21.52;;;1.90;84.50;;;;;;5075303;28;20688;-60
2022/01/26 02:54:13;;;;;;;42.00;18.55;;;1.80;84.70;;;;;;5017791;28;20681;-56
2022/01/26 02:56:52;;;;;;;40.92;19.85;;;1.90;84.30;;;;;;5074712;28;20200;-55
2022/01/26 02:59:47;;;;;;;66.22;22.58;;;1.90;84.00;;;;;;5073280;28;20224;-55
2022/01/26 03:02:25;;;;;;;51.60;20.80;;;1.70;84.20;;;;;;5074442;28;20211;-55
2022/01/26 03:04:55;;;;;;;64.35;23.23;;;1.70;84.60;;;;;;5074532;28;20204;-56
2022/01/26 03:07:35;;;;;;;39.45;18.38;;;1.70;84.30;;;;;;5074424;28;20236;-55
2022/01/26 03:10:09;;;;;;;38.28;18.60;;;1.50;84.40;;;;;;5074375;28;20200;-57
2022/01/26 03:12:44;;;;;;;32.28;17.25;;;1.30;85.50;;;;;;5073944;28;20239;-56
2022/01/26 03:15:15;;;;;;;35.33;17.65;;;0.80;86.60;;;;;;5073029;28;20200;-56
2022/01/26 03:17:58;;;;;;;37.70;18.65;;;0.40;88.60;;;;;;5073699;28;20215;-55
2022/01/26 03:20:25;;;;;;;39.67;18.00;;;0.40;89.60;;;;;;5074039;28;20205;-56
2022/01/26 03:28:25;;;;;;;35.67;18.40;;;0.90;88.10;;;;;;5073671;28;20239;-58
2022/01/26 03:33:56;;;;;;;34.65;17.40;;;1.20;86.70;;;;;;5037425;28;20224;-60
2022/01/26 03:36:26;;;;;;;36.80;17.05;;;1.40;86.10;;;;;;5073733;28;20307;-60
2022/01/26 03:39:00;;;;;;;39.85;18.13;;;1.50;85.70;;;;;;5073641;28;20200;-59
2022/01/26 03:41:37;;;;;;;35.00;17.58;;;1.50;85.10;;;;;;5073662;28;20681;-58
2022/01/26 03:44:05;;;;;;;30.67;16.08;;;1.60;84.50;;;;;;5073573;28;20208;-60
2022/01/26 03:46:32;;;;;;;35.50;17.15;;;1.60;83.80;;;;;;5072341;28;20235;-59
2022/01/26 03:48:59;;;;;;;34.05;16.13;;;1.50;83.60;;;;;;5073558;28;20211;-60
2022/01/26 03:51:26;;;;;;;35.42;17.25;;;1.30;83.80;;;;;;5073456;28;20594;-60
2022/01/26 03:53:53;;;;;;;29.67;14.57;;;1.40;83.60;;;;;;5073466;28;20200;-58
2022/01/26 03:56:20;;;;;;;38.50;17.77;;;1.30;83.30;;;;;;5073427;28;20299;-58
2022/01/26 03:58:48;;;;;;;30.70;14.73;;;1.20;83.40;;;;;;5073334;28;20211;-60
2022/01/26 04:01:15;;;;;;;30.98;16.95;;;1.10;83.50;;;;;;5072082;28;20215;-58
2022/01/26 04:03:42;;;;;;;33.08;15.57;;;1.10;83.60;;;;;;5073349;28;20297;-60
2022/01/26 04:06:09;;;;;;;33.58;15.98;;;1.10;83.40;;;;;;5073159;28;20296;-59
2022/01/26 04:08:38;;;;;;;48.00;17.35;;;1.20;83.50;;;;;;5073293;28;20211;-58
2022/01/26 04:11:20;;;;;;;37.50;16.55;;;1.20;83.30;;;;;;5073028;28;20201;-59
2022/01/26 04:13:50;;;;;;;37.47;15.55;;;1.10;83.20;;;;;;5073028;28;20256;-60
2022/01/26 04:16:17;;;;;;;39.60;15.52;;;1.00;83.00;;;;;;5071764;28;20201;-59
2022/01/26 04:18:44;;;;;;;30.45;15.18;;;0.80;83.40;;;;;;5073122;28;20579;-59
2022/01/26 04:21:19;;;;;;;29.48;15.70;;;0.70;84.80;;;;;;5073159;28;20254;-61
2022/01/26 04:23:50;;;;;;;28.88;14.25;;;0.70;85.00;;;;;;5073026;28;20211;-60
2022/01/26 04:26:24;;;;;;;33.50;15.30;;;0.90;84.90;;;;;;5072885;28;20201;-61
2022/01/26 04:28:57;;;;;;;37.45;16.23;;;1.00;84.70;;;;;;5071929;28;20647;-61
2022/01/26 04:31:24;;;;;;;29.92;15.73;;;1.00;84.70;;;;;;5071777;28;20555;-59
2022/01/26 04:33:52;;;;;;;39.17;16.00;;;1.00;84.50;;;;;;5072892;28;20293;-60
2022/01/26 04:36:24;;;;;;;31.88;15.63;;;1.00;84.50;;;;;;5073039;28;20204;-61
2022/01/26 04:38:55;;;;;;;33.30;15.93;;;1.10;84.70;;;;;;5072866;28;20746;-59
2022/01/26 04:41:31;;;;;;;32.65;16.08;;;1.00;84.40;;;;;;5072753;28;20205;-60
2022/01/26 04:44:05;;;;;;;33.30;14.90;;;0.90;85.60;;;;;;5072693;28;20299;-61
2022/01/26 04:46:32;;;;;;;34.00;15.20;;;0.90;85.40;;;;;;5071540;28;20200;-61
2022/01/26 04:48:59;;;;;;;33.08;16.73;;;0.90;85.40;;;;;;5072818;28;20211;-60
2022/01/26 04:51:26;;;;;;;38.80;16.10;;;0.90;85.50;;;;;;5072693;28;20721;-59
2022/01/26 04:53:53;;;;;;;39.25;15.68;;;0.70;86.20;;;;;;5072577;28;20518;-60
2022/01/26 04:56:19;;;;;;;27.67;14.80;;;0.80;86.40;;;;;;5072724;28;20296;-57
2022/01/26 04:58:46;;;;;;;31.05;15.45;;;0.80;86.00;;;;;;5072574;28;20207;-55
2022/01/26 05:01:15;;;;;;;47.42;16.70;;;0.60;85.80;;;;;;5071350;28;20200;-58
2022/01/26 05:03:41;;;;;;;36.67;17.00;;;0.30;86.70;;;;;;5072645;28;20201;-59
2022/01/26 05:06:08;;;;;;;32.22;16.95;;;0.00;87.90;;;;;;5072649;28;20307;-58
2022/01/26 05:08:36;;;;;;;31.92;15.48;;;-0.10;89.00;;;;;;5072325;28;20239;-58
2022/01/26 05:11:04;;;;;;;31.48;15.07;;;-0.20;89.40;;;;;;5072493;28;20208;-58
2022/01/26 05:13:31;;;;;;;33.33;15.63;;;-0.30;90.10;;;;;;5072259;28;20224;-57
2022/01/26 05:15:57;;;;;;;48.42;17.63;;;-0.30;90.30;;;;;;5071183;28;20227;-59
2022/01/26 05:18:26;;;;;;;36.85;16.75;;;-0.30;90.70;;;;;;5072517;28;20204;-56
2022/01/26 05:20:52;;;;;;;39.72;18.42;;;-0.30;90.60;;;;;;5072466;28;20296;-57
2022/01/26 05:23:19;;;;;;;45.10;19.45;;;-0.40;90.70;;;;;;5072298;28;20291;-55
2022/01/26 05:25:46;;;;;;;38.20;16.90;;;-0.40;91.00;;;;;;5072275;28;20674;-59
2022/01/26 05:28:13;;;;;;;40.50;16.27;;;-0.40;90.60;;;;;;5072082;28;20713;-56
2022/01/26 05:30:40;;;;;;;40.60;18.45;;;-0.20;91.20;;;;;;5071114;28;20304;-56
2022/01/26 05:33:07;;;;;;;44.42;18.15;;;0.00;90.40;;;;;;5072350;28;20247;-58
2022/01/26 05:35:35;;;;;;;44.00;19.33;;;0.00;90.00;;;;;;5072262;28;20698;-59
2022/01/26 05:38:03;;;;;;;29.50;14.45;;;0.30;89.90;;;;;;5072192;28;20201;-61
2022/01/26 05:40:30;;;;;;;33.28;16.42;;;0.50;89.10;;;;;;5074352;28;20309;-60
2022/01/26 05:42:57;;;;;;;36.95;17.52;;;0.40;88.00;;;;;;5075884;28;20197;-60
2022/01/26 05:45:29;;;;;;;42.05;18.52;;;0.40;88.00;;;;;;5074645;28;20232;-59
2022/01/26 05:47:56;;;;;;;37.63;17.30;;;0.20;88.00;;;;;;5075647;28;20232;-60
2022/01/26 05:50:23;;;;;;;35.83;15.82;;;0.00;88.90;;;;;;5075687;28;20212;-60
2022/01/26 05:52:51;;;;;;;34.45;16.85;;;0.00;89.20;;;;;;5075818;28;20201;-61
2022/01/26 05:55:18;;;;;;;41.47;18.48;;;-0.10;89.50;;;;;;5075679;28;20300;-60
2022/01/26 05:57:45;;;;;;;51.33;21.05;;;-0.10;90.00;;;;;;5075601;28;20205;-61
2022/01/26 06:00:13;;;;;;;52.50;18.65;;;-0.20;90.30;;;;;;5074350;28;20296;-60
2022/01/26 06:02:40;;;;;;;41.42;16.30;;;-0.20;90.30;;;;;;5075534;28;20204;-58
2022/01/26 06:05:08;;;;;;;42.47;18.95;;;-0.30;90.00;;;;;;5075506;28;20709;-60
2022/01/26 06:07:35;;;;;;;46.22;17.98;;;-0.30;90.70;;;;;;5075522;28;20229;-60
2022/01/26 06:10:04;;;;;;;38.88;16.58;;;0.00;91.10;;;;;;5075517;28;20201;-59
2022/01/26 06:12:33;;;;;;;34.85;16.73;;;0.20;90.50;;;;;;5074976;28;20241;-60
2022/01/26 06:15:00;;;;;;;39.33;17.52;;;0.30;89.20;;;;;;5074124;28;20209;-61
2022/01/26 06:17:27;;;;;;;40.00;17.20;;;0.40;88.80;;;;;;5075249;28;20211;-60
2022/01/26 06:19:54;;;;;;;38.90;16.95;;;0.30;88.20;;;;;;5075251;28;20283;-60
2022/01/26 06:22:21;;;;;;;34.80;16.58;;;0.00;89.10;;;;;;5075290;28;20197;-60
2022/01/26 06:24:48;;;;;;;44.75;18.80;;;-0.20;89.50;;;;;;5075100;28;20204;-60
2022/01/26 06:27:16;;;;;;;33.33;16.15;;;-0.40;90.10;;;;;;5075070;28;20256;-61
2022/01/26 06:29:43;;;;;;;39.30;16.92;;;-0.60;91.10;;;;;;5073598;28;20296;-60
2022/01/26 06:32:11;;;;;;;39.70;16.33;;;-0.50;92.30;;;;;;5074942;28;20307;-59
2022/01/26 06:34:39;;;;;;;36.33;15.68;;;-0.40;91.90;;;;;;5075060;28;20738;-57
2022/01/26 06:37:07;;;;;;;38.47;16.50;;;-0.40;91.80;;;;;;5074966;28;20228;-58
2022/01/26 06:39:34;;;;;;;42.80;16.95;;;-0.30;91.50;;;;;;5074919;28;20212;-55
2022/01/26 06:42:03;;;;;;;39.70;17.90;;;-0.20;90.80;;;;;;5074883;28;20239;-60
2022/01/26 06:44:35;;;;;;;33.47;16.20;;;-0.40;90.00;;;;;;5073118;28;20240;-58
2022/01/26 06:47:18;;;;;;;42.03;17.00;;;-0.40;90.90;;;;;;5074624;28;20212;-58
2022/01/26 06:49:46;;;;;;;45.72;16.65;;;-0.60;90.30;;;;;;5074710;28;20218;-55
2022/01/26 06:52:12;;;;;;;35.38;18.05;;;-1.00;91.20;;;;;;5073775;28;20200;-59
2022/01/26 06:54:39;;;;;;;78.40;20.45;;;-1.10;92.30;;;;;;5074525;28;20681;-60
2022/01/26 06:57:06;;;;;;;34.25;17.27;;;-0.90;93.20;;;;;;5074368;28;20299;-59
2022/01/26 06:59:34;;;;;;;54.90;17.90;;;-0.60;93.30;;;;;;5073176;28;20490;-60
2022/01/26 07:02:01;;;;;;;43.13;18.15;;;-0.60;92.20;;;;;;5074532;28;20205;-60
2022/01/26 07:04:28;;;;;;;54.83;18.77;;;-0.70;91.90;;;;;;5074399;28;20561;-60
2022/01/26 07:06:55;;;;;;;36.97;16.92;;;-0.50;92.20;;;;;;5074355;28;20201;-60
2022/01/26 07:09:22;;;;;;;35.00;16.08;;;-0.30;91.40;;;;;;5074261;28;20235;-59
2022/01/26 07:11:49;;;;;;;45.92;17.83;;;-0.30;90.60;;;;;;5073968;28;20623;-61
2022/01/26 07:14:26;;;;;;;34.42;16.30;;;-0.30;90.80;;;;;;5073754;28;20211;-56
2022/01/26 07:19:54;;;;;;;34.38;16.83;;;-0.20;90.30;;;;;;5074192;28;20223;-56
2022/01/26 07:22:21;;;;;;;37.95;16.25;;;-0.20;90.00;;;;;;5074135;28;20591;-55
2022/01/26 07:24:48;;;;;;;40.30;17.35;;;-0.20;89.60;;;;;;5073910;28;20299;-57
2022/01/26 07:27:15;;;;;;;34.00;15.68;;;-0.10;90.00;;;;;;5073907;28;20201;-56
2022/01/26 07:29:42;;;;;;;49.40;18.65;;;0.20;90.10;;;;;;5072485;28;20204;-56
2022/01/26 07:32:10;;;;;;;42.47;16.90;;;-0.10;88.10;;;;;;5073971;28;20209;-56
2022/01/26 07:34:39;;;;;;;35.05;15.95;;;-0.30;88.90;;;;;;5073671;28;20295;-54
2022/01/26 07:37:08;;;;;;;38.13;17.27;;;-0.50;89.90;;;;;;5073683;28;20215;-55
2022/01/26 07:39:44;;;;;;;38.65;17.20;;;-0.60;90.40;;;;;;5073620;28;20208;-55
2022/01/26 07:42:11;;;;;;;73.88;20.70;;;-0.60;91.10;;;;;;5073628;28;20539;-57
2022/01/26 07:44:38;;;;;;;41.30;18.35;;;-0.60;91.00;;;;;;5072039;28;20200;-55
2022/01/26 07:47:06;;;;;;;36.30;16.40;;;-0.50;91.20;;;;;;5073285;28;20200;-58
2022/01/26 07:49:34;;;;;;;36.08;16.42;;;-0.30;91.10;;;;;;5073504;28;20323;-55
2022/01/26 07:52:01;;;;;;;38.03;17.02;;;0.00;91.00;;;;;;5073466;28;20291;-58
2022/01/26 07:54:28;;;;;;;44.08;17.92;;;0.10;90.10;;;;;;5073296;28;20209;-57
2022/01/26 07:56:55;;;;;;;39.97;17.60;;;0.10;88.80;;;;;;5073412;28;20211;-58
2022/01/26 07:59:22;;;;;;;40.10;18.10;;;-0.20;88.70;;;;;;5071790;28;20204;-56
2022/01/26 08:01:49;;;;;;;39.63;16.48;;;-0.30;89.50;;;;;;5072994;28;20291;-59
2022/01/26 08:04:16;;;;;;;40.47;16.77;;;-0.30;90.60;;;;;;5072955;28;20236;-59
2022/01/26 08:06:44;;;;;;;39.75;18.40;;;-0.30;90.20;;;;;;5073123;28;20215;-58
2022/01/26 08:09:11;;;;;;;37.30;17.83;;;-0.30;90.10;;;;;;5073057;28;20255;-56
2022/01/26 08:11:38;;;;;;;31.85;17.08;;;-0.20;90.40;;;;;;5072767;28;20304;-59
2022/01/26 08:14:05;;;;;;;40.08;17.63;;;-0.10;89.50;;;;;;5072800;28;20207;-58
2022/01/26 08:16:32;;;;;;;42.33;18.63;;;-0.10;89.80;;;;;;5071640;28;20211;-59
2022/01/26 08:18:59;;;;;;;38.95;17.45;;;0.20;89.90;;;;;;5072918;28;20205;-60
2022/01/26 08:21:26;;;;;;;35.92;16.67;;;0.40;89.40;;;;;;5072929;28;20197;-60
2022/01/26 08:24:02;;;;;;;39.78;17.88;;;0.50;88.20;;;;;;5072784;28;20209;-60
2022/01/26 08:26:38;;;;;;;35.40;17.45;;;0.60;88.30;;;;;;5072991;28;20200;-59
2022/01/26 08:29:11;;;;;;;38.25;17.33;;;0.30;86.70;;;;;;5072602;28;20263;-57
2022/01/26 08:31:38;;;;;;;41.35;17.80;;;-0.20;87.60;;;;;;5071546;28;20663;-59
2022/01/26 08:34:05;;;;;;;38.80;17.63;;;-0.50;89.20;;;;;;5072810;28;20300;-58
2022/01/26 08:36:31;;;;;;;42.42;18.77;;;-0.30;90.70;;;;;;5072826;28;20215;-58
2022/01/26 08:39:00;;;;;;;39.92;18.90;;;-0.20;90.40;;;;;;5072752;28;20210;-58
2022/01/26 08:41:27;;;;;;;43.50;19.40;;;0.10;90.60;;;;;;5072460;28;20217;-57
2022/01/26 08:43:54;;;;;;;45.92;20.40;;;0.40;89.90;;;;;;5072593;28;20574;-58
2022/01/26 08:46:21;;;;;;;47.10;20.00;;;0.60;88.80;;;;;;5071443;28;20201;-56
2022/01/26 08:48:48;;;;;;;43.72;20.00;;;0.80;88.00;;;;;;5072633;28;20229;-58
2022/01/26 08:51:15;;;;;;;45.67;19.70;;;0.80;86.60;;;;;;5072668;28;20205;-55
2022/01/26 08:53:42;;;;;;;45.00;20.63;;;0.80;86.60;;;;;;5072439;28;20287;-60
2022/01/26 08:56:10;;;;;;;48.72;20.17;;;0.80;86.50;;;;;;5072680;28;20210;-59
2022/01/26 08:58:37;;;;;;;45.22;20.67;;;0.80;86.40;;;;;;5072538;28;20212;-57
2022/01/26 09:01:04;;;;;;;41.08;17.20;;;0.80;87.00;;;;;;5071291;28;20204;-60
2022/01/26 09:03:36;;;;;;;37.40;18.45;;;0.80;86.40;;;;;;5072527;28;20293;-59
2022/01/26 09:06:03;;;;;;;43.25;18.85;;;0.90;86.60;;;;;;5072473;28;20292;-60
2022/01/26 09:08:30;;;;;;;38.80;17.35;;;1.10;86.50;;;;;;5072316;28;20225;-60
2022/01/26 09:11:00;;;;;;;35.72;16.02;;;1.20;86.00;;;;;;5072230;28;20773;-56
2022/01/26 09:13:31;;;;;;;38.08;16.88;;;1.20;85.60;;;;;;5072342;28;20653;-60
2022/01/26 09:15:58;;;;;;;46.33;17.38;;;1.30;85.00;;;;;;5074046;28;20590;-61
2022/01/26 09:18:33;;;;;;;48.97;19.25;;;1.40;84.70;;;;;;5076446;28;20200;-59
2022/01/26 09:21:00;;;;;;;39.08;17.13;;;1.30;84.20;;;;;;5076260;28;20204;-56
2022/01/26 09:23:27;;;;;;;36.55;15.55;;;1.20;84.40;;;;;;5076208;28;20667;-57
2022/01/26 09:25:54;;;;;;;49.63;18.75;;;1.00;85.10;;;;;;5076276;28;20211;-57
2022/01/26 09:28:21;;;;;;;44.78;18.90;;;0.90;85.80;;;;;;5076007;28;20323;-59
2022/01/26 09:30:49;;;;;;;64.60;18.60;;;0.80;85.70;;;;;;5074884;28;20211;-60
2022/01/26 09:33:16;;;;;;;37.42;17.73;;;0.80;86.50;;;;;;5076070;28;20295;-60
2022/01/26 09:35:44;;;;;;;59.92;19.10;;;0.90;86.30;;;;;;5076054;28;20205;-60
2022/01/26 09:38:11;;;;;;;38.47;17.75;;;1.00;85.80;;;;;;5075937;28;20646;-60
2022/01/26 09:40:38;;;;;;;39.78;16.98;;;0.90;85.70;;;;;;5075841;28;20207;-62
2022/01/26 09:43:06;;;;;;;45.13;18.75;;;1.00;86.20;;;;;;5075680;28;20205;-56
2022/01/26 09:45:34;;;;;;;48.28;17.90;;;1.10;86.30;;;;;;5074525;28;20295;-60
2022/01/26 09:48:03;;;;;;;53.67;19.60;;;0.90;85.30;;;;;;5075591;28;20288;-60
2022/01/26 09:50:31;;;;;;;39.97;17.77;;;0.60;87.10;;;;;;5075728;28;20206;-61
2022/01/26 09:52:58;;;;;;;46.72;18.40;;;0.40;87.20;;;;;;5075562;28;20360;-57
2022/01/26 09:55:26;;;;;;;62.30;17.40;;;0.20;87.80;;;;;;5075621;28;20299;-56
2022/01/26 09:57:57;;;;;;;41.70;18.80;;;0.00;88.50;;;;;;5075590;28;20201;-56
2022/01/26 10:00:25;;;;;;;47.38;17.00;;;-0.40;89.60;;;;;;5074160;28;20208;-55
2022/01/26 10:02:57;;;;;;;54.55;18.02;;;-0.50;90.90;;;;;;5075355;28;20690;-56
2022/01/26 10:05:25;;;;;;;46.28;16.88;;;-0.50;91.60;;;;;;5075464;28;20295;-55
2022/01/26 10:08:07;;;;;;;43.22;17.35;;;-0.70;91.90;;;;;;5075508;28;20283;-55
2022/01/26 10:16:16;;;;;;;47.17;17.98;;;-0.30;92.10;;;;;;5074028;28;20204;-55
2022/01/26 10:18:43;;;;;;;48.10;17.88;;;-0.30;91.60;;;;;;5075235;28;20675;-55
2022/01/26 10:21:11;;;;;;;35.20;16.60;;;-0.30;91.50;;;;;;5075282;28;20670;-55
2022/01/26 10:23:41;;;;;;;42.30;16.65;;;-0.40;91.10;;;;;;5075084;28;20291;-55
2022/01/26 10:26:12;;;;;;;40.35;16.73;;;-0.40;91.00;;;;;;5073804;28;20223;-56
2022/01/26 10:28:44;;;;;;;36.72;14.90;;;-0.50;91.20;;;;;;5074867;28;20236;-55
2022/01/26 10:31:15;;;;;;;50.25;18.13;;;-0.60;90.90;;;;;;5073669;28;20201;-56
2022/01/26 10:33:56;;;;;;;40.60;16.25;;;-0.70;91.30;;;;;;5074935;28;20291;-57
2022/01/26 10:36:24;;;;;;;38.25;16.50;;;-0.60;91.70;;;;;;5074993;28;20563;-59
2022/01/26 10:39:02;;;;;;;34.30;16.10;;;-0.60;91.40;;;;;;5074905;28;20200;-58
2022/01/26 10:41:29;;;;;;;34.55;16.05;;;-0.40;91.50;;;;;;5074797;28;20208;-55
2022/01/26 10:43:57;;;;;;;35.42;13.70;;;-0.30;91.30;;;;;;5074693;28;20349;-56
2022/01/26 10:46:27;;;;;;;32.28;14.93;;;-0.20;91.30;;;;;;5073351;28;20674;-55
2022/01/26 10:49:07;;;;;;;36.35;15.68;;;-0.40;90.30;;;;;;5074652;28;20312;-60
2022/01/26 10:51:52;;;;;;;35.38;15.25;;;-0.20;91.00;;;;;;5074585;28;20309;-56
2022/01/26 10:54:24;;;;;;;33.25;15.20;;;0.10;90.90;;;;;;5074637;28;20205;-56
2022/01/26 10:56:52;;;;;;;33.28;14.93;;;0.40;89.90;;;;;;5074288;28;20205;-56
2022/01/26 10:59:19;;;;;;;34.30;15.55;;;0.70;89.70;;;;;;5073534;28;20204;-55
2022/01/26 11:01:46;;;;;;;38.83;16.33;;;0.70;88.00;;;;;;5074467;28;20207;-57
2022/01/26 11:04:13;;;;;;;33.33;15.80;;;0.70;87.60;;;;;;5074342;28;20307;-54
2022/01/26 11:06:49;;;;;;;41.13;16.33;;;0.70;87.90;;;;;;5074219;28;20629;-57
2022/01/26 11:09:20;;;;;;;34.92;17.05;;;0.80;88.40;;;;;;5074029;28;20237;-58
2022/01/26 11:11:47;;;;;;;30.58;15.43;;;1.10;87.90;;;;;;5074002;28;20551;-59
2022/01/26 11:14:21;;;;;;;41.75;16.90;;;1.20;87.40;;;;;;5073825;28;20196;-55
2022/01/26 11:16:50;;;;;;;29.40;15.55;;;1.40;86.30;;;;;;5074094;28;20208;-59
2022/01/26 11:19:17;;;;;;;35.58;16.13;;;1.10;85.20;;;;;;5074049;28;20299;-57
2022/01/26 11:21:45;;;;;;;33.15;17.58;;;1.20;86.30;;;;;;5074107;28;20204;-59
2022/01/26 11:24:18;;;;;;;42.28;18.50;;;1.30;86.40;;;;;;5073752;28;20297;-61
2022/01/26 11:26:47;;;;;;;38.78;17.50;;;1.50;86.00;;;;;;5073915;28;20243;-60
2022/01/26 11:29:25;;;;;;;40.83;18.15;;;1.30;84.80;;;;;;5073604;28;20239;-59
2022/01/26 11:32:05;;;;;;;42.72;17.77;;;1.40;85.80;;;;;;5073711;28;20240;-58
2022/01/26 11:34:33;;;;;;;39.25;17.02;;;1.50;86.00;;;;;;5073560;28;20660;-60
2022/01/26 11:37:04;;;;;;;42.55;17.23;;;1.50;85.80;;;;;;5073613;28;20200;-58
2022/01/26 11:45:13;;;;;;;47.85;19.42;;;1.80;84.70;;;;;;5015204;28;20195;-58
2022/01/26 11:47:42;;;;;;;46.38;19.27;;;1.70;84.90;;;;;;5073495;28;20247;-60
2022/01/26 11:50:14;;;;;;;49.40;20.60;;;1.80;85.20;;;;;;5073497;28;20235;-60
2022/01/26 11:52:46;;;;;;;40.70;18.55;;;1.90;85.30;;;;;;5073409;28;20201;-59
2022/01/26 11:55:30;;;;;;;44.25;19.23;;;1.80;84.60;;;;;;5073274;28;20201;-59
2022/01/26 11:58:08;;;;;;;39.53;18.15;;;1.80;84.90;;;;;;5073376;28;20284;-57
2022/01/26 12:00:42;;;;;;;48.17;19.38;;;1.80;84.60;;;;;;5071870;28;20299;-58
2022/01/26 12:03:25;;;;;;;47.25;19.58;;;1.60;84.80;;;;;;5073323;28;20222;-58
2022/01/26 12:05:55;;;;;;;43.58;18.35;;;1.20;85.80;;;;;;5073025;28;20758;-58
2022/01/26 12:08:32;;;;;;;47.95;17.75;;;1.20;87.30;;;;;;5073145;28;20209;-59
2022/01/26 12:11:00;;;;;;;58.72;22.10;;;1.50;87.30;;;;;;5072866;28;20244;-58
2022/01/26 12:13:29;;;;;;;46.08;20.60;;;1.60;87.10;;;;;;5072962;28;20282;-60
2022/01/26 12:15:57;;;;;;;53.05;20.25;;;1.80;86.60;;;;;;5071810;28;20205;-58
2022/01/26 12:18:32;;;;;;;44.78;18.92;;;2.00;86.50;;;;;;5072856;28;20567;-56
2022/01/26 12:35:14;;;;;;;46.65;18.38;;;2.20;85.00;;;;;;5072416;28;20260;-58
2022/01/26 12:37:52;;;;;;;51.38;20.77;;;2.10;85.10;;;;;;5072701;28;20254;-61
2022/01/26 12:43:13;;;;;;;39.10;16.65;;;2.00;85.60;;;;;;5072622;28;20207;-55
2022/01/26 12:45:39;;;;;;;40.05;16.50;;;2.00;85.40;;;;;;5071138;28;20714;-58
2022/01/26 12:48:10;;;;;;;37.53;16.63;;;2.10;85.40;;;;;;5072639;28;20200;-60
2022/01/26 12:50:39;;;;;;;37.53;17.75;;;2.10;84.60;;;;;;5071779;28;20247;-60
2022/01/26 12:53:07;;;;;;;37.85;17.35;;;2.00;84.50;;;;;;5072548;28;20300;-59
2022/01/26 12:55:38;;;;;;;34.95;15.88;;;2.10;84.90;;;;;;5072556;28;20208;-59
2022/01/26 12:58:05;;;;;;;43.35;18.00;;;2.10;84.60;;;;;;5072567;28;20296;-61
2022/01/26 13:00:41;;;;;;;41.55;16.13;;;2.10;84.10;;;;;;5071077;28;20564;-58
2022/01/26 13:03:15;;;;;;;37.78;16.05;;;2.00;84.00;;;;;;5072436;28;20204;-61
2022/01/26 13:05:43;;;;;;;30.63;15.13;;;1.90;84.30;;;;;;5072475;28;20200;-60
2022/01/26 13:08:11;;;;;;;36.53;15.95;;;1.40;84.40;;;;;;5072405;28;20208;-59
2022/01/26 13:10:41;;;;;;;59.60;17.30;;;1.40;86.20;;;;;;5072262;28;20234;-58
2022/01/26 13:13:18;;;;;;;43.03;18.15;;;1.50;85.80;;;;;;5072185;28;20228;-55
2022/01/26 13:15:55;;;;;;;35.70;15.95;;;1.20;86.40;;;;;;5070954;28;20673;-60
2022/01/26 13:18:41;;;;;;;44.78;18.55;;;1.30;87.20;;;;;;5072455;28;20234;-61
2022/01/26 13:21:37;;;;;;;41.95;17.17;;;1.60;87.20;;;;;;5072415;28;20739;-61
2022/01/26 13:24:14;;;;;;;32.63;15.05;;;1.80;86.40;;;;;;5072293;28;20572;-62
2022/01/26 13:27:00;;;;;;;38.70;16.00;;;1.90;85.70;;;;;;5072290;28;20208;-61
2022/01/26 13:29:38;;;;;;;42.95;16.05;;;2.00;85.30;;;;;;5070618;28;20315;-60
2022/01/26 13:37:48;;;;;;;39.97;16.58;;;1.90;84.60;;;;;;5056347;28;20280;-61
2022/01/26 13:40:22;;;;;;;37.90;16.48;;;1.90;84.90;;;;;;5072237;28;20205;-62
2022/01/26 13:46:01;;;;;;;37.25;16.30;;;2.00;84.10;;;;;;5059981;28;20227;-57
2022/01/26 13:51:17;;;;;;;44.40;17.52;;;2.10;84.00;;;;;;5072005;28;20317;-58
2022/01/26 13:53:51;;;;;;;42.95;16.75;;;2.10;84.00;;;;;;5071930;28;20196;-58
2022/01/26 13:56:31;;;;;;;41.90;18.17;;;2.10;83.90;;;;;;5071985;28;20632;-56
2022/01/26 13:59:09;;;;;;;34.10;16.15;;;1.80;84.50;;;;;;5071735;28;20258;-56
2022/01/26 14:01:41;;;;;;;43.70;17.27;;;1.90;85.20;;;;;;5072736;28;20205;-58
2022/01/26 14:04:08;;;;;;;32.88;16.38;;;2.00;84.60;;;;;;5075543;28;20197;-57
2022/01/26 14:06:35;;;;;;;34.13;15.20;;;2.00;84.30;;;;;;5075464;28;20204;-55
2022/01/26 14:09:02;;;;;;;30.83;15.40;;;2.00;84.50;;;;;;5075296;28;20562;-55
2022/01/26 14:11:29;;;;;;;37.90;16.00;;;2.10;84.40;;;;;;5075219;28;20236;-55
2022/01/26 14:13:57;;;;;;;43.53;19.40;;;2.10;84.30;;;;;;5075488;28;20291;-55
2022/01/26 14:16:28;;;;;;;38.40;15.35;;;2.10;84.10;;;;;;5074046;28;20647;-56
2022/01/26 14:19:07;;;;;;;38.47;17.65;;;2.10;83.80;;;;;;5075252;28;20204;-56
2022/01/26 14:24:29;;;;;;;39.75;15.85;;;2.00;83.50;;;;;;5074662;28;20205;-56
2022/01/26 14:26:59;;;;;;;35.35;14.90;;;1.80;83.80;;;;;;5075164;28;20651;-56
2022/01/26 14:29:36;;;;;;;36.85;15.70;;;1.80;84.00;;;;;;5073559;28;20209;-55
2022/01/26 14:35:20;;;;;;;32.60;15.02;;;1.50;84.30;;;;;;5013211;28;20202;-57